Skip Navigation Links
NOAA logo - Click to go to the NOAA homepage
NOAA's National Weather Service
Alaska Aviation Weather Unit
  NWS logo - Click to go to the NWS homepage
Left Navbar Graphic     08 AKDT = 16 GMT

   
NOAA is celebrating 200 years of science, service, and stewardship. Visit the NOAA 200th celebration Web site to learn more.
USA.gov is the U.S. Government's official Web portal to all Federal, state and local government Web resources and services.
Facebook
NWS on Facebook

Important Change Regarding the AAWU Web Presence

 

Over the last several months, the AAWU has been working to navigate its webpages to a nationally supported server. Security, as well as other needs, have necessitated the change.  In the process, we have made an effort to enhance the functionality of our website, as well as some of our products. As of June 20, 2017, aawu.arh.noaa.gov will be discontinued. The new AAWU web address is weather.gov/aawu. It is now live and will run in-parallel with the old site until it is discontinued. Please send any feedback or questions regarding the new webpages to nws.ar.aawu.webauthors@noaa.gov.  Thank you for your patience during this time of transition.
AAWU Home :: Display TAF Add Bookmark
TAF PAVD 291557Z 2916/3012 VRB03KT P6SM -RA OVC030
     FM291800 VRB04KT 5SM -RA BR FEW010 BKN015
     FM292200 25006KT P6SM -SHRA SCT025 BKN035
     FM300300 26005KT P6SM VCSH SCT040 BKN070 AMD LTD TO CLD VIS
      AND WIND=

METAR PAVD 291016Z 00000KT 10SM OVC050 05/04 A2994= METAR PAVD 291016Z 00000KT 10SM OVC050 05/04 A2994 RMK AO1 = PAVD 291036Z 00000KT 10SM BKN046 OVC050 05/03 A2994= METAR PAVD 291036Z 00000KT 10SM BKN046 OVC050 05/03 A2994 RMK AO1 P0001= METAR PAVD 291056Z 00000KT 10SM SCT023 BKN034 OVC046 05/04 A2994= PAVD 291116Z 00000KT 7SM OVC021 05/04 A2994= METAR PAVD 291116Z 00000KT 7SM OVC021 05/04 A2994 RMK AO1 P0001= METAR PAVD 291136Z 00000KT 7SM OVC019 05/04 A2994= METAR PAVD 291136Z 00000KT 7SM OVC019 05/04 A2994 RMK AO1 P0002= METAR PAVD 291156Z 00000KT 9SM OVC019 05/04 A2994= METAR PAVD 291216Z 00000KT 10SM OVC017 05/04 A2993= METAR PAVD 291216Z 00000KT 10SM OVC017 05/04 A2993 RMK AO1 P0001= METAR PAVD 291236Z 00000KT 8SM OVC017 05/04 A2993= METAR PAVD 291236Z 00000KT 8SM OVC017 05/04 A2993 RMK AO1 P0003= METAR PAVD 291256Z 00000KT 8SM OVC015 05/04 A2993= PAVD 291316Z 00000KT 9SM OVC015 05/04 A2993= METAR PAVD 291316Z 00000KT 9SM OVC015 05/04 A2993 RMK AO1 P0002= METAR PAVD 291336Z 00000KT 8SM FEW010 BKN015 OVC026 05/04 A2993= METAR PAVD 291336Z 00000KT 8SM FEW010 BKN015 OVC026 05/04 A2993 RMK AO1 P0005= METAR PAVD 291356Z 00000KT 10SM SCT013 BKN025 OVC033 05/04 A2993= PAVD 291416Z 00000KT 6SM FEW001 BKN020 OVC035 05/04 A2993= METAR PAVD 291416Z 00000KT 6SM FEW001 BKN020 OVC035 05/04 A2993 RMK AO1 1410Z WEA: -RA BR TWR WND 00000KT FIRST P0003= PAVD 291436Z 00000KT 6SM FEW001 BKN020 OVC035 05/04 A2993= METAR PAVD 291436Z 00000KT 6SM FEW001 BKN020 OVC035 05/04 A2993 RMK AO1 1410Z WEA: -RA BR TWR WND 00000KT FIRST P0005= METAR PAVD 291456Z 00000KT 7SM FEW001 BKN030 OVC040 06/04 A2993= PAVD 291516Z 10003KT 7SM FEW001 BKN030 OVC040 06/04 A2993= METAR PAVD 291516Z 10003KT 7SM FEW001 BKN030 OVC040 06/04 A2993 RMK AO1 1447Z WEA: -RA VIS W 2 TWR WND 00000KT P0001= PAVD 291536Z 00000KT 7SM FEW001 BKN030 OVC040 06/04 A2993= METAR PAVD 291536Z 00000KT 7SM FEW001 BKN030 OVC040 06/04 A2993 RMK AO1 1447Z WEA: -RA VIS W 2 TWR WND 00000KT P0003= METAR PAVD 291556Z 00000KT 6SM FEW002 SCT012 OVC035 06/04 A2994= PAVD 291616Z 00000KT 6SM FEW002 SCT012 OVC035 06/04 A2994= METAR PAVD 291616Z 00000KT 6SM FEW002 SCT012 OVC035 06/04 A2994 RMK AO1 1547Z WEA: -RA BR TWR WND 00000KT P0002= PAVD 291636Z 00000KT 6SM FEW002 SCT012 OVC035 06/04 A2995= METAR PAVD 291636Z 00000KT 6SM FEW002 SCT012 OVC035 06/04 A2995 RMK AO1 1547Z WEA: -RA BR TWR WND 00000KT P0003=
 Alaska TAF Map

NOAA's National Weather Service
Alaska Aviation Weather Unit
6930 Sand Lake Road
Anchorage, AK 99502-1845
Disclaimer
Credits
Glossary
Privacy Policy
About Us
Career Opportunities
Contact AAWU Internet Services Site last modified: April, 17th 2012